Terminal Aerodrome Forecast
Issued by NWS Pocatello, ID

Home | Current Version | Previous Version | Text Only | Print | Product List | Glossary On
Versions: 1 2 3 4 5 6 7 8 9 10 11 12 13 14 15 16 17 18 19 20 21 22
000
FTUS45 KPIH 202300
TAFPIH
TAF
KPIH 202320Z 2100/2124 25015KT P6SM SCT200
     FM210300 23008KT P6SM SCT200
     FM210800 VRB05KT P6SM BKN200
     FM212000 21011KT P6SM FEW060 BKN120=

USA.gov is the U.S. government's official web portal to all federal, state and local government web resources and services.